Harpersfield, New York
Current Conditions -  °F | °C
As of 2:35 AM on Saturday 25 Oct 2014 (Local Time) from KNY0 Reporting Station
Scattered Clouds Scattered Clouds  
Wind Chill: 35°   Ceiling: Unl
Heat Index: 41°   Visibility: 10mi
Dew Point: 39°   Wind: 10mph
Humidity: 93%   Direction: 250°WSW
Pressure: 29.85"   Gusts: NA
Location:  42.44°N, 74.69°W
Report Text: KNY0 250635Z AUTO 25009KT 10SM SCT014 05/04 A2985 RMK AO2 T00510040
Loading
Personal Weather Stations






























Interactive Weather Map
Tropical Storm Tracking
New forecast layout! Learn more

10-Day Weather Forecast

Advertisements
Track Severe Weather on mobile